• Join FlightAware (Why Join?)
  • Login
  • US Flag 
09:42AM EDT


 

Airport Tracker/Info


-or-


 

Live Flight TrackerFlight Track Log ✈ BEL3738 ✈ 02-May-2013 ✈ LEMG / AGP - EBBR / BRU

Flight Track Log - Related Links

Times and Time Zones

All times are in EDT time to prevent confusion due to time zone crossing. See the BEL3738 flight status page for this flight to view local times or setup timezone preferences in your user account.

Time Position Orientation Groundspeed Altitude Reporting Facility
EDT Latitude Longitude Course Direction KTS MPH feet Rate Location/Type
11:02AM 37.3109 -4.1844 21° North  Level Estimated
11:03AM 37.4168 -4.1314 22° Northeast  Level Estimated
11:04AM 37.5227 -4.0783 22° Northeast  Level Estimated
11:05AM 37.6285 -4.0251 22° Northeast  Level Estimated
11:06AM 37.7344 -3.9716 22° Northeast  Level Estimated
11:07AM 37.8402 -3.9181 22° Northeast  Level Estimated
11:08AM 37.9460 -3.8643 22° Northeast  Level Estimated
11:09AM 38.0518 -3.8105 22° Northeast  Level Estimated
11:10AM 38.1575 -3.7564 22° Northeast  Level Estimated
11:11AM 38.2632 -3.7022 22° Northeast  Level Estimated
11:12AM 38.3689 -3.6479 22° Northeast  Level Estimated
11:13AM 38.4746 -3.5934 22° Northeast  Level Estimated
11:14AM 38.5802 -3.5387 22° Northeast  Level Estimated
11:15AM 38.6858 -3.4839 22° Northeast  Level Estimated
11:16AM 38.7914 -3.4289 22° Northeast  Level Estimated
11:17AM 38.8970 -3.3737 22° Northeast  Level Estimated
11:18AM 39.0025 -3.3184 22° Northeast  Level Estimated
11:19AM 39.1081 -3.2629 22° Northeast  Level Estimated
11:20AM 39.2135 -3.2073 22° Northeast  Level Estimated
11:21AM 39.3190 -3.1514 22° Northeast  Level Estimated
11:22AM 39.4244 -3.0954 22° Northeast  Level Estimated
11:23AM 39.5299 -3.0393 22° Northeast  Level Estimated
11:24AM 39.6352 -2.9829 22° Northeast  Level Estimated
11:25AM 39.7406 -2.9265 22° Northeast  Level Estimated
11:26AM 39.8459 -2.8698 22° Northeast  Level Estimated
11:27AM 39.9512 -2.8129 22° Northeast  Level Estimated
11:28AM 40.0565 -2.7559 23° Northeast  Level Estimated
11:29AM 40.1617 -2.6987 23° Northeast  Level Estimated
11:30AM 40.2669 -2.6413 23° Northeast  Level Estimated
11:31AM 40.3721 -2.5838 23° Northeast  Level Estimated
11:32AM 40.4773 -2.5260 23° Northeast  Level Estimated
11:33AM 40.5824 -2.4681 23° Northeast  Level Estimated
11:34AM 40.6875 -2.4100 23° Northeast  Level Estimated
11:35AM 40.7926 -2.3517 23° Northeast  Level Estimated
11:36AM 40.8976 -2.2933 23° Northeast  Level Estimated
11:37AM 41.0026 -2.2346 23° Northeast  Level Estimated
11:38AM 41.1076 -2.1758 23° Northeast  Level Estimated
11:39AM 41.2126 -2.1167 23° Northeast  Level Estimated
11:40AM 41.3175 -2.0575 23° Northeast  Level Estimated
11:41AM 41.4224 -1.9981 23° Northeast  Level Estimated
11:42AM 41.5272 -1.9385 23° Northeast  Level Estimated
11:43AM 41.6321 -1.8787 23° Northeast  Level Estimated
11:44AM 41.7369 -1.8187 23° Northeast  Level Estimated
11:45AM 41.8416 -1.7585 23° Northeast  Level Estimated
11:46AM 41.9464 -1.6982 23° Northeast  Level Estimated
11:47AM 42.0511 -1.6376 23° Northeast  Level Estimated
11:48AM 42.1557 -1.5768 23° Northeast  Level Estimated
11:49AM 42.2604 -1.5158 23° Northeast  Level Estimated
11:50AM 42.3650 -1.4546 23° Northeast  Level Estimated
11:51AM 42.4696 -1.3932 23° Northeast  Level Estimated
11:52AM 42.5741 -1.3316 23° Northeast  Level Estimated
11:53AM 42.6786 -1.2698 23° Northeast  Level Estimated
11:54AM 42.7831 -1.2078 24° Northeast  Level Estimated
11:55AM 42.8875 -1.1456 24° Northeast  Level Estimated
11:56AM 42.9919 -1.0832 24° Northeast  Level Estimated
11:57AM 43.0963 -1.0205 24° Northeast  Level Estimated
11:58AM 43.2006 -0.9577 24° Northeast  Level Estimated
11:59AM 43.3050 -0.8946 24° Northeast  Level Estimated
12:00PM 43.4092 -0.8313 24° Northeast  Level Estimated
12:01PM 43.5135 -0.7678 24° Northeast  Level Estimated
12:02PM 43.6177 -0.7041 24° Northeast  Level Estimated
12:03PM 43.7218 -0.6401 24° Northeast  Level Estimated
12:04PM 43.8260 -0.5760 24° Northeast  Level Estimated
12:05PM 43.9300 -0.5116 24° Northeast  Level Estimated
12:06PM 44.0341 -0.4469 24° Northeast  Level Estimated
12:07PM 44.1381 -0.3821 24° Northeast  Level Estimated
12:08PM 44.2421 -0.3170 24° Northeast  Level Estimated
12:09PM 44.3461 -0.2517 24° Northeast  Level Estimated
12:10PM 44.4500 -0.1862 24° Northeast  Level Estimated
12:11PM 44.5538 -0.1204 24° Northeast  Level Estimated
12:12PM 44.6577 -0.0544 24° Northeast  Level Estimated
12:13PM 44.7615 0.0119 24° Northeast  Level Estimated
12:14PM 44.8652 0.0784 24° Northeast  Level Estimated
12:15PM 44.9689 0.1451 24° Northeast  Level Estimated
12:16PM 45.0726 0.2120 25° Northeast  Level Estimated
12:17PM 45.1763 0.2792 25° Northeast  Level Estimated
12:18PM 45.2799 0.3467 25° Northeast  Level Estimated
12:19PM 45.3834 0.4144 25° Northeast  Level Estimated
12:20PM 45.4869 0.4823 25° Northeast  Level Estimated
12:21PM 45.5904 0.5505 25° Northeast  Level Estimated
12:22PM 45.6939 0.6190 25° Northeast  Level Estimated
12:23PM 45.7973 0.6877 25° Northeast  Level Estimated
12:24PM 45.9006 0.7567 25° Northeast  Level Estimated
12:25PM 46.0039 0.8259 25° Northeast  Level Estimated
12:26PM 46.1072 0.8954 25° Northeast  Level Estimated
12:27PM 46.2104 0.9651 25° Northeast  Level Estimated
12:28PM 46.3136 1.0351 25° Northeast  Level Estimated
12:29PM 46.4168 1.1054 25° Northeast  Level Estimated
12:30PM 46.5199 1.1759 25° Northeast  Level Estimated
12:31PM 46.6229 1.2467 25° Northeast  Level Estimated
12:32PM 46.7259 1.3178 25° Northeast  Level Estimated
12:33PM 46.8289 1.3891 25° Northeast  Level Estimated
12:34PM 46.9318 1.4607 25° Northeast  Level Estimated
12:35PM 47.0347 1.5326 25° Northeast  Level Estimated
12:36PM 47.1376 1.6048 26° Northeast  Level Estimated
12:37PM 47.2403 1.6772 26° Northeast  Level Estimated
12:38PM 47.3431 1.7500 26° Northeast  Level Estimated
12:39PM 47.4458 1.8230 26° Northeast  Level Estimated
12:40PM 47.5484 1.8963 26° Northeast  Level Estimated
12:41PM 47.6511 1.9698 26° Northeast  Level Estimated
12:42PM 47.7536 2.0437 26° Northeast  Level Estimated
12:43PM 47.8561 2.1179 26° Northeast  Level Estimated
12:44PM 47.9586 2.1923 26° Northeast  Level Estimated
12:45PM 48.0610 2.2671 26° Northeast  Level Estimated
12:46PM 48.1634 2.3421 26° Northeast  Level Estimated
12:47PM 48.2657 2.4175 26° Northeast  Level Estimated
12:48PM 48.3680 2.4932 26° Northeast  Level Estimated
12:49PM 48.4702 2.5691 26° Northeast  Level Estimated
12:50PM 48.5723 2.6454 26° Northeast  Level Estimated
12:51PM 48.6745 2.7220 26° Northeast  Level Estimated
12:52PM 48.7765 2.7989 26° Northeast  Level Estimated
12:53PM 48.8785 2.8761 26° Northeast  Level Estimated
12:54PM 48.9805 2.9536 27° Northeast  Level Estimated
12:55PM 49.0824 3.0314 27° Northeast  Level Estimated
12:56PM 49.1843 3.1096 27° Northeast  Level Estimated
12:57PM 49.2861 3.1880 27° Northeast  Level Estimated
12:58PM 49.3878 3.2668 27° Northeast  Level Estimated
12:59PM 49.4895 3.3460 27° Northeast  Level Estimated
01:00PM 49.5912 3.4254 27° Northeast  Level Estimated
01:01PM 49.6927 3.5052 27° Northeast  Level Estimated
01:02PM 49.7943 3.5853 27° Northeast  Level Estimated
01:03PM 49.8958 3.6658 27° Northeast  Level Estimated
01:04PM 49.9972 3.7466 27° Northeast  Level Estimated
01:05PM 50.0985 3.8277 27° Northeast  Level Estimated
01:06PM 50.1999 3.9092 27° Northeast  Level Estimated
01:07PM 50.3011 3.9911 27° Northeast  Level Estimated
01:08PM 50.4023 4.0732 27° Northeast  Level Estimated
01:09PM 50.5034 4.1558 27° Northeast  Level Estimated
01:10PM 50.6045 4.2386 27° Northeast  Level Estimated
01:11PM 50.7055 4.3219 28° Northeast  Level Estimated
01:12PM 50.8065 4.4055 28° Northeast  Level Estimated
01:13PM 50.9014 4.4844 28° Northeast  Level Estimated
01:14PM 50.9014 4.4844 112° Southeast  Level Estimated
01:15PM 50.9014 4.4844 112° Southeast  Level Estimated
01:16PM 50.9014 4.4844 112° Southeast  Level Estimated
01:17PM 50.9014 4.4844 112° Southeast  Level Estimated
01:18PM 50.9014 4.4844 112° Southeast  Level Estimated
01:19PM 50.9014 4.4844 112° Southeast  Level Estimated
01:20PM 50.9014 4.4844 112° Southeast  Level Estimated
01:21PM 50.9014 4.4844 112° Southeast  Level Estimated
01:22PM 50.9014 4.4844 112° Southeast  Level Estimated
01:23PM 50.9014 4.4844 112° Southeast  Level Estimated
01:24PM 50.9014 4.4844 112° Southeast  Level Estimated
01:25PM 50.9014 4.4844 112° Southeast  Level Estimated